createdAt,value
2019-05-09T00:01:44.447Z,96.90
2019-05-09T00:04:17.227Z,97.10
2019-05-09T00:06:46.901Z,96.80
2019-05-09T00:09:16.567Z,96.70
2019-05-09T00:11:46.302Z,96.60
2019-05-09T00:14:15.974Z,96.40
2019-05-09T00:16:45.617Z,96.50
2019-05-09T00:19:15.245Z,96.50
2019-05-09T00:21:46.479Z,96.60
2019-05-09T00:24:17.148Z,96.60
2019-05-09T00:26:46.718Z,96.70
2019-05-09T00:29:19.042Z,96.90
2019-05-09T00:31:50.290Z,97.00
2019-05-09T00:34:23.399Z,97.10
2019-05-09T00:36:53.971Z,97.00
2019-05-09T00:39:29.860Z,97.00
2019-05-09T00:42:00.624Z,97.10
2019-05-09T00:44:33.879Z,97.00
2019-05-09T00:47:04.711Z,97.00
2019-05-09T00:49:34.392Z,96.90
2019-05-09T00:52:04.067Z,96.90
2019-05-09T00:54:33.756Z,97.00
2019-05-09T00:57:03.926Z,97.10
2019-05-09T00:59:33.594Z,97.20
2019-05-09T01:02:03.972Z,97.20
2019-05-09T01:04:34.099Z,97.30
2019-05-09T01:07:03.791Z,97.30
2019-05-09T01:09:33.594Z,97.40
2019-05-09T01:12:04.083Z,97.40
2019-05-09T01:14:34.165Z,97.40
2019-05-09T01:17:04.308Z,97.50
2019-05-09T01:19:34.355Z,97.70
2019-05-09T01:22:03.995Z,97.80
2019-05-09T01:24:33.962Z,97.80
2019-05-09T01:27:03.870Z,97.80
2019-05-09T01:32:23.695Z,97.80
2019-05-09T01:34:53.381Z,97.80
2019-05-09T01:37:23.786Z,97.80
2019-05-09T01:39:53.684Z,97.70
2019-05-09T01:42:23.404Z,97.80
2019-05-09T01:44:53.359Z,97.80
2019-05-09T01:47:23.572Z,97.80
2019-05-09T01:49:53.834Z,97.80
2019-05-09T01:52:23.880Z,97.90
2019-05-09T01:54:54.157Z,97.90
2019-05-09T01:57:25.131Z,97.90
2019-05-09T01:59:54.817Z,98.00
2019-05-09T02:02:24.483Z,98.10
2019-05-09T02:04:54.227Z,98.20
2019-05-09T02:07:24.000Z,98.30
2019-05-09T02:09:54.067Z,98.30
2019-05-09T02:12:24.602Z,98.40
2019-05-09T02:14:56.034Z,98.30
2019-05-09T02:17:27.269Z,98.40
2019-05-09T02:19:56.889Z,98.50
2019-05-09T02:22:28.186Z,98.60
2019-05-09T02:24:57.838Z,98.60
2019-05-09T02:27:27.534Z,98.70
2019-05-09T02:29:57.212Z,98.60
2019-05-09T02:32:26.928Z,98.60
2019-05-09T02:34:57.791Z,98.60
2019-05-09T02:37:28.758Z,98.60
2019-05-09T02:39:59.302Z,98.70
2019-05-09T02:42:29.132Z,98.80
2019-05-09T02:44:59.450Z,98.90
2019-05-09T02:47:30.487Z,99.00
2019-05-09T02:50:00.152Z,99.00
2019-05-09T02:52:29.806Z,99.10
2019-05-09T02:54:59.492Z,99.10
2019-05-09T02:57:30.268Z,99.10
2019-05-09T03:00:00.094Z,99.10
2019-05-09T03:02:38.384Z,99.20
2019-05-09T03:05:08.770Z,99.30
2019-05-09T03:07:40.722Z,99.40
2019-05-09T03:10:10.331Z,99.40
2019-05-09T03:12:40.132Z,99.40
2019-05-09T03:15:10.100Z,99.40
2019-05-09T03:17:39.785Z,99.40
2019-05-09T03:20:11.326Z,99.30
2019-05-09T03:22:41.037Z,99.40
2019-05-09T03:25:11.365Z,99.50
2019-05-09T03:27:42.658Z,99.60
2019-05-09T03:30:13.891Z,99.60
2019-05-09T03:32:43.552Z,99.60
2019-05-09T03:35:13.393Z,99.60
2019-05-09T03:37:43.069Z,99.60
2019-05-09T03:40:12.846Z,99.60
2019-05-09T03:42:43.834Z,99.70
2019-05-09T03:45:15.456Z,99.70
2019-05-09T03:47:47.814Z,99.80
2019-05-09T03:50:17.989Z,99.70
2019-05-09T03:52:47.932Z,99.70
2019-05-09T03:55:19.339Z,99.80
2019-05-09T03:57:50.641Z,99.80
2019-05-09T04:00:20.370Z,99.80
2019-05-09T04:02:53.748Z,99.80
2019-05-09T04:05:23.380Z,99.90
2019-05-09T04:07:53.041Z,99.90
2019-05-09T04:10:22.591Z,99.90
2019-05-09T04:12:56.221Z,99.90
2019-05-09T04:15:23.517Z,99.90
2019-05-09T04:17:53.188Z,99.90
2019-05-09T04:20:22.759Z,99.90
2019-05-09T04:22:52.398Z,99.90
2019-05-09T04:25:23.756Z,99.90
2019-05-09T04:27:53.714Z,99.90
2019-05-09T04:30:23.272Z,99.90
2019-05-09T04:32:52.865Z,99.90
2019-05-09T04:35:22.493Z,99.90
2019-05-09T04:37:52.180Z,99.90
2019-05-09T04:40:23.029Z,99.90
2019-05-09T04:43:07.870Z,99.90
2019-05-09T04:45:28.366Z,99.90
2019-05-09T04:47:57.897Z,99.90
2019-05-09T04:50:28.005Z,99.90
2019-05-09T04:52:58.081Z,99.90
2019-05-09T04:55:29.561Z,99.90
2019-05-09T04:58:00.248Z,99.90
2019-05-09T05:00:31.742Z,99.80
2019-05-09T05:03:01.413Z,99.90
2019-05-09T05:05:30.975Z,99.80
2019-05-09T05:08:00.636Z,99.80
2019-05-09T05:10:30.224Z,99.70
2019-05-09T05:12:59.858Z,99.80
2019-05-09T05:15:29.491Z,99.90
2019-05-09T05:17:59.107Z,99.90
2019-05-09T05:20:30.393Z,99.90
2019-05-09T05:23:01.749Z,99.80
2019-05-09T05:25:32.393Z,99.90
2019-05-09T05:28:02.113Z,99.80
2019-05-09T05:30:31.696Z,99.90
2019-05-09T05:33:03.053Z,99.90
2019-05-09T05:35:34.366Z,99.90
2019-05-09T05:38:04.051Z,99.90
2019-05-09T05:40:44.956Z,99.90
2019-05-09T05:43:10.723Z,99.90
2019-05-09T05:45:42.106Z,99.90
2019-05-09T05:48:13.405Z,99.60
2019-05-09T05:50:43.078Z,99.30
2019-05-09T05:53:12.699Z,99.00
2019-05-09T05:55:42.383Z,98.70
2019-05-09T05:58:12.603Z,98.50
2019-05-09T06:00:42.303Z,98.60
2019-05-09T06:03:14.852Z,98.90
2019-05-09T06:05:44.547Z,98.40
2019-05-09T06:08:14.603Z,98.20
2019-05-09T06:10:44.147Z,98.00
2019-05-09T06:13:13.793Z,96.10
2019-05-09T06:15:43.518Z,94.60
2019-05-09T06:18:13.172Z,94.70
2019-05-09T06:20:45.649Z,94.60
2019-05-09T06:23:14.572Z,94.70
2019-05-09T06:25:44.254Z,93.20
2019-05-09T06:28:13.943Z,92.50
2019-05-09T06:30:43.672Z,91.10
2019-05-09T06:33:14.992Z,87.80
2019-05-09T06:35:48.215Z,84.60
2019-05-09T06:38:19.765Z,84.30
2019-05-09T06:40:51.076Z,82.40
2019-05-09T06:43:23.917Z,82.60
2019-05-09T06:45:57.552Z,82.10
2019-05-09T06:48:28.865Z,81.00
2019-05-09T06:50:59.997Z,79.30
2019-05-09T06:53:31.304Z,77.00
2019-05-09T06:56:02.587Z,76.60
2019-05-09T06:58:35.509Z,74.10
2019-05-09T07:01:08.525Z,69.80
2019-05-09T07:03:41.477Z,70.80
2019-05-09T07:06:14.347Z,69.80
2019-05-09T07:08:47.826Z,69.30
2019-05-09T07:11:19.389Z,66.60
2019-05-09T07:13:50.784Z,64.90
2019-05-09T07:16:23.184Z,64.70
2019-05-09T07:18:54.484Z,63.70
2019-05-09T07:21:28.609Z,64.00
2019-05-09T07:24:00.065Z,64.90
2019-05-09T07:26:32.965Z,63.20
2019-05-09T07:29:04.327Z,63.00
2019-05-09T07:31:37.934Z,63.80
2019-05-09T07:34:11.220Z,62.30
2019-05-09T07:36:42.493Z,63.20
2019-05-09T07:39:13.305Z,62.00
2019-05-09T07:41:44.608Z,60.00
2019-05-09T07:44:18.006Z,61.80
2019-05-09T07:46:50.386Z,61.30
2019-05-09T07:49:21.645Z,58.60
2019-05-09T07:51:52.959Z,56.60
2019-05-09T07:54:25.660Z,59.80
2019-05-09T07:56:59.422Z,59.80
2019-05-09T07:59:30.655Z,63.90
2019-05-09T08:02:02.007Z,66.90
2019-05-09T08:04:33.344Z,68.50
2019-05-09T08:07:04.623Z,68.00
2019-05-09T08:09:38.587Z,65.20
2019-05-09T08:12:08.880Z,63.60
2019-05-09T08:14:39.023Z,65.80
2019-05-09T08:17:10.346Z,66.60
2019-05-09T08:19:41.611Z,65.70
2019-05-09T08:22:12.981Z,67.60
2019-05-09T08:24:44.269Z,67.40
2019-05-09T08:27:13.931Z,63.70
2019-05-09T08:29:47.708Z,61.50
2019-05-09T08:32:19.700Z,60.50
2019-05-09T08:34:51.099Z,58.50
2019-05-09T08:37:22.458Z,61.90
2019-05-09T08:39:53.782Z,60.60
2019-05-09T08:42:25.147Z,62.20
2019-05-09T08:44:57.623Z,63.00
2019-05-09T08:47:28.361Z,61.70
2019-05-09T08:50:01.199Z,60.10
2019-05-09T08:52:32.478Z,62.70
2019-05-09T08:55:04.579Z,62.00
2019-05-09T08:57:37.390Z,57.50
2019-05-09T09:00:08.926Z,58.30
2019-05-09T09:02:40.977Z,59.30
2019-05-09T09:05:14.028Z,60.80
2019-05-09T09:07:45.221Z,61.10
2019-05-09T09:10:15.314Z,63.50
2019-05-09T09:12:47.728Z,62.20
2019-05-09T09:15:19.359Z,61.20
2019-05-09T09:17:50.610Z,63.10
2019-05-09T09:20:21.927Z,59.10
2019-05-09T09:22:53.200Z,58.90
2019-05-09T09:25:24.487Z,60.00
2019-05-09T09:27:58.009Z,59.40
2019-05-09T09:30:29.499Z,56.50
2019-05-09T09:33:01.005Z,55.00
2019-05-09T09:35:32.323Z,54.60
2019-05-09T09:38:03.652Z,57.20
2019-05-09T09:40:35.281Z,55.70
2019-05-09T09:43:09.135Z,55.00
2019-05-09T09:45:39.429Z,55.20
2019-05-09T09:48:10.644Z,55.30
2019-05-09T09:50:41.937Z,55.10
2019-05-09T09:53:13.217Z,53.60
2019-05-09T09:55:44.488Z,55.00
2019-05-09T09:58:18.690Z,55.80
2019-05-09T10:00:50.262Z,57.20
2019-05-09T10:03:21.690Z,57.00
2019-05-09T10:05:53.039Z,56.30
2019-05-09T10:08:23.364Z,57.00
2019-05-09T10:10:53.326Z,55.70
2019-05-09T10:13:24.651Z,56.40
2019-05-09T10:15:58.682Z,58.90
2019-05-09T10:18:31.979Z,62.20
2019-05-09T10:21:04.892Z,60.80
2019-05-09T10:23:37.900Z,58.40
2019-05-09T10:26:09.025Z,57.90
2019-05-09T10:28:40.243Z,55.20
2019-05-09T10:31:11.509Z,55.70
2019-05-09T10:33:42.793Z,52.70
2019-05-09T10:36:14.025Z,53.00
2019-05-09T10:38:47.656Z,53.10
2019-05-09T10:41:18.148Z,54.40
2019-05-09T10:43:50.433Z,53.00
2019-05-09T10:46:23.360Z,51.40
2019-05-09T10:48:54.562Z,52.40
2019-05-09T10:51:24.281Z,53.00
2019-05-09T10:53:53.880Z,54.20
2019-05-09T10:56:24.541Z,54.60
2019-05-09T10:58:54.129Z,56.20
2019-05-09T11:01:23.814Z,57.40
2019-05-09T11:03:53.445Z,57.90
2019-05-09T11:06:23.181Z,58.50
2019-05-09T11:08:52.915Z,58.90
2019-05-09T11:11:22.569Z,59.30
2019-05-09T11:13:52.284Z,59.20
2019-05-09T11:16:21.884Z,58.30
2019-05-09T11:18:51.598Z,58.60
2019-05-09T11:21:21.309Z,59.00
2019-05-09T11:23:51.019Z,59.50
2019-05-09T11:26:21.764Z,60.00
2019-05-09T11:28:51.493Z,59.20
2019-05-09T11:31:21.219Z,59.30
2019-05-09T11:33:51.132Z,58.30
2019-05-09T11:36:21.357Z,59.20
2019-05-09T11:38:51.436Z,59.90
2019-05-09T11:41:21.090Z,62.20
2019-05-09T11:43:50.786Z,63.50
2019-05-09T11:46:20.332Z,63.10
2019-05-09T11:48:50.003Z,62.80
2019-05-09T11:51:22.770Z,63.60
2019-05-09T11:53:51.011Z,63.60
2019-05-09T11:56:20.633Z,63.70
2019-05-09T11:58:50.337Z,63.60
2019-05-09T12:01:19.905Z,63.90
2019-05-09T12:03:52.271Z,66.90
2019-05-09T12:06:21.989Z,65.50
2019-05-09T12:08:51.562Z,65.50
2019-05-09T12:11:22.439Z,66.40
2019-05-09T12:13:51.999Z,68.50
2019-05-09T12:16:21.497Z,71.90
2019-05-09T12:18:51.203Z,73.30
2019-05-09T12:21:20.756Z,75.80
2019-05-09T12:23:50.422Z,76.80
2019-05-09T12:26:20.076Z,77.00
2019-05-09T12:28:49.698Z,77.30
2019-05-09T12:31:20.378Z,75.80
2019-05-09T12:33:49.931Z,74.40
2019-05-09T12:36:19.621Z,70.90
2019-05-09T12:38:50.211Z,69.70
2019-05-09T12:41:21.514Z,70.00
2019-05-09T12:43:51.098Z,69.20
2019-05-09T12:46:20.695Z,68.60
2019-05-09T12:48:50.287Z,66.20
2019-05-09T12:51:19.909Z,63.00
2019-05-09T12:53:49.568Z,59.00
2019-05-09T12:56:19.237Z,59.80
2019-05-09T12:58:48.911Z,57.90
2019-05-09T13:01:19.005Z,59.10
2019-05-09T13:03:49.092Z,62.80
2019-05-09T13:06:19.975Z,62.90
2019-05-09T13:08:49.960Z,62.00
2019-05-09T13:11:20.182Z,62.10
2019-05-09T13:13:50.311Z,53.90
2019-05-09T13:16:21.647Z,55.40
2019-05-09T13:18:52.973Z,56.20
2019-05-09T13:21:22.697Z,54.00
2019-05-09T13:23:53.272Z,58.10
2019-05-09T13:26:22.926Z,56.60
2019-05-09T13:28:52.561Z,58.30
2019-05-09T13:31:22.223Z,51.20
2019-05-09T13:33:52.022Z,51.00
2019-05-09T13:36:25.242Z,54.40
2019-05-09T13:39:03.170Z,51.00
2019-05-09T13:41:26.227Z,51.00
2019-05-09T13:43:59.074Z,50.30
2019-05-09T13:46:28.215Z,50.90
2019-05-09T13:49:11.111Z,50.40
2019-05-09T13:51:29.464Z,48.60
2019-05-09T13:53:59.434Z,49.40
2019-05-09T13:56:29.086Z,47.30
2019-05-09T13:58:58.866Z,48.70
2019-05-09T14:01:28.500Z,47.80
2019-05-09T14:03:58.185Z,50.00
2019-05-09T14:06:27.933Z,51.20
2019-05-09T14:08:59.732Z,52.10
2019-05-09T14:11:29.409Z,49.00
2019-05-09T14:13:59.020Z,49.50
2019-05-09T14:16:28.978Z,46.10
2019-05-09T14:19:09.619Z,45.70
2019-05-09T14:21:30.029Z,50.00
2019-05-09T14:24:11.436Z,46.30
2019-05-09T14:26:32.604Z,47.10
2019-05-09T14:29:02.245Z,44.40
2019-05-09T14:31:32.639Z,45.40
2019-05-09T14:34:02.453Z,43.90
2019-05-09T14:36:32.166Z,45.10
2019-05-09T14:39:01.848Z,46.20
2019-05-09T14:41:33.092Z,46.10
2019-05-09T14:44:02.885Z,46.30
2019-05-09T14:46:32.556Z,46.80
2019-05-09T14:49:02.285Z,48.60
2019-05-09T14:51:32.004Z,47.90
2019-05-09T14:54:01.726Z,47.50
2019-05-09T14:56:31.406Z,47.30
2019-05-09T14:59:01.137Z,47.80
2019-05-09T15:01:30.818Z,48.60
2019-05-09T15:04:00.617Z,50.20
2019-05-09T15:06:30.248Z,51.60
2019-05-09T15:08:59.909Z,51.40
2019-05-09T15:11:31.658Z,51.00
2019-05-09T15:14:02.563Z,51.70
2019-05-09T15:16:38.880Z,51.60
2019-05-09T15:19:12.908Z,51.30
2019-05-09T15:21:48.460Z,50.00
2019-05-09T15:24:19.248Z,55.90
2019-05-09T15:26:49.320Z,61.20
2019-05-09T15:29:18.993Z,65.00
2019-05-09T15:31:54.339Z,67.80
2019-05-09T15:34:20.072Z,70.60
2019-05-09T15:36:49.861Z,76.50
2019-05-09T15:39:19.574Z,78.20
2019-05-09T15:41:49.332Z,75.50
2019-05-09T15:44:18.953Z,76.90
2019-05-09T15:46:50.297Z,76.60
2019-05-09T15:49:21.199Z,77.50
2019-05-09T15:51:51.358Z,77.10
2019-05-09T15:54:20.959Z,77.00
2019-05-09T15:56:51.238Z,76.50
2019-05-09T15:59:20.946Z,74.60
2019-05-09T16:01:51.860Z,72.90
2019-05-09T16:04:22.805Z,72.90
2019-05-09T16:06:52.816Z,71.80
2019-05-09T16:09:22.597Z,69.50
2019-05-09T16:11:52.257Z,70.80
2019-05-09T16:14:21.958Z,68.70
2019-05-09T16:16:51.778Z,68.50
2019-05-09T16:19:21.458Z,68.30
2019-05-09T16:21:51.099Z,63.40
2019-05-09T16:24:20.845Z,65.50
2019-05-09T16:26:53.501Z,63.90
2019-05-09T16:29:23.249Z,64.80
2019-05-09T16:31:52.890Z,63.70
2019-05-09T16:34:22.555Z,64.00
2019-05-09T16:36:53.506Z,63.50
2019-05-09T16:39:23.139Z,62.70
2019-05-09T16:41:52.838Z,63.10
2019-05-09T16:44:22.606Z,63.30
2019-05-09T16:46:52.293Z,63.20
2019-05-09T16:49:26.024Z,62.80
2019-05-09T16:51:53.298Z,62.70
2019-05-09T16:54:28.323Z,63.60
2019-05-09T16:57:00.007Z,64.70
2019-05-09T16:59:29.390Z,65.40
2019-05-09T17:01:59.069Z,65.00
2019-05-09T17:04:29.895Z,65.70
2019-05-09T17:06:59.547Z,66.70
2019-05-09T17:09:29.210Z,67.00
2019-05-09T17:11:58.758Z,68.50
2019-05-09T17:14:28.434Z,67.90
2019-05-09T17:17:00.003Z,68.10
2019-05-09T17:19:29.278Z,68.10
2019-05-09T17:22:00.596Z,68.60
2019-05-09T17:24:30.238Z,68.70
2019-05-09T17:26:59.938Z,68.80
2019-05-09T17:29:29.731Z,69.00
2019-05-09T17:31:59.379Z,68.80
2019-05-09T17:34:29.016Z,68.60
2019-05-09T17:36:58.641Z,68.20
2019-05-09T17:39:28.298Z,68.50
2019-05-09T17:41:58.319Z,67.10
2019-05-09T17:44:28.536Z,66.30
2019-05-09T17:46:58.300Z,64.00
2019-05-09T17:49:28.171Z,64.00
2019-05-09T17:51:58.529Z,61.60
2019-05-09T17:54:28.906Z,61.80
2019-05-09T17:56:58.902Z,61.40
2019-05-09T17:59:29.182Z,61.90
2019-05-09T18:01:59.303Z,62.20
2019-05-09T18:04:29.067Z,62.30
2019-05-09T18:06:58.820Z,62.10
2019-05-09T18:09:28.789Z,62.50
2019-05-09T18:11:58.744Z,62.30
2019-05-09T18:14:28.629Z,60.90
2019-05-09T18:16:59.615Z,61.30
2019-05-09T18:19:29.522Z,62.10
2019-05-09T18:21:59.384Z,62.10
2019-05-09T18:24:29.010Z,61.30
2019-05-09T18:26:58.684Z,62.20
2019-05-09T18:29:28.681Z,60.50
2019-05-09T18:31:59.930Z,61.20
2019-05-09T18:34:32.882Z,60.00
2019-05-09T18:37:03.063Z,61.10
2019-05-09T18:39:32.646Z,61.60
2019-05-09T18:42:02.292Z,61.60
2019-05-09T18:44:32.036Z,61.20
2019-05-09T18:47:01.703Z,61.00
2019-05-09T18:49:31.403Z,61.20
2019-05-09T18:52:03.792Z,61.20
2019-05-09T18:54:32.324Z,60.40
2019-05-09T18:57:02.022Z,60.70
2019-05-09T18:59:31.585Z,60.10
2019-05-09T19:02:01.236Z,61.50
2019-05-09T19:04:30.834Z,62.00
2019-05-09T19:07:00.444Z,61.70
2019-05-09T19:09:30.023Z,63.00
2019-05-09T19:11:59.684Z,62.30
2019-05-09T19:14:29.270Z,63.20
2019-05-09T19:17:00.497Z,63.10
2019-05-09T19:19:31.746Z,63.20
2019-05-09T19:22:04.987Z,63.10
2019-05-09T19:24:34.111Z,63.30
2019-05-09T19:27:03.656Z,63.50
2019-05-09T19:29:33.303Z,63.40
2019-05-09T19:32:02.905Z,64.20
2019-05-09T19:34:33.671Z,63.80
2019-05-09T19:37:06.765Z,63.80
2019-05-09T19:39:36.412Z,63.90
2019-05-09T19:42:06.007Z,64.90
2019-05-09T19:44:36.900Z,65.10
2019-05-09T19:47:06.581Z,65.20
2019-05-09T19:49:36.201Z,65.40
2019-05-09T19:52:05.826Z,65.40
2019-05-09T19:54:35.297Z,65.60
2019-05-09T19:57:04.949Z,66.10
2019-05-09T19:59:34.648Z,66.50
2019-05-09T20:02:04.311Z,67.40
2019-05-09T20:04:33.934Z,67.90
2019-05-09T20:07:03.511Z,68.70
2019-05-09T20:09:34.697Z,69.50
2019-05-09T20:12:07.780Z,69.90
2019-05-09T20:14:39.080Z,69.60
2019-05-09T20:17:09.040Z,69.40
2019-05-09T20:19:38.730Z,69.10
2019-05-09T20:22:08.387Z,69.00
2019-05-09T20:24:37.974Z,69.30
2019-05-09T20:27:07.530Z,69.10
2019-05-09T20:29:37.175Z,69.30
2019-05-09T20:32:06.795Z,69.00
2019-05-09T20:34:36.498Z,69.40
2019-05-09T20:37:06.249Z,69.50
2019-05-09T20:39:36.059Z,69.10
2019-05-09T20:42:05.845Z,69.40
2019-05-09T20:44:35.721Z,69.70
2019-05-09T20:47:05.500Z,69.50
2019-05-09T20:49:36.373Z,69.60
2019-05-09T20:52:06.165Z,70.10
2019-05-09T20:54:35.949Z,69.90
2019-05-09T20:57:05.728Z,70.20
2019-05-09T20:59:35.478Z,70.60
2019-05-09T21:02:05.337Z,70.40
2019-05-09T21:04:38.339Z,70.70
2019-05-09T21:07:10.846Z,70.90
2019-05-09T21:09:40.723Z,71.60
2019-05-09T21:12:11.221Z,70.70
2019-05-09T21:14:41.290Z,71.80
2019-05-09T21:17:11.179Z,70.70
2019-05-09T21:19:41.033Z,70.00
2019-05-09T21:22:10.917Z,69.90
2019-05-09T21:24:40.812Z,70.10
2019-05-09T21:27:11.685Z,70.30
2019-05-09T21:29:41.503Z,70.40
2019-05-09T21:32:11.322Z,70.90
2019-05-09T21:34:47.175Z,71.60
2019-05-09T21:37:17.220Z,71.60
2019-05-09T21:39:48.415Z,71.80
2019-05-09T21:42:18.071Z,71.80
2019-05-09T21:44:47.729Z,71.70
2019-05-09T21:47:17.368Z,72.20
2019-05-09T21:49:46.971Z,72.20
2019-05-09T21:52:16.640Z,72.10
2019-05-09T21:54:46.208Z,72.50
2019-05-09T21:57:16.896Z,73.00
2019-05-09T21:59:46.476Z,73.30
2019-05-09T22:02:16.252Z,73.30
2019-05-09T22:04:46.054Z,73.20
2019-05-09T22:07:15.635Z,73.40
2019-05-09T22:09:45.125Z,73.60
2019-05-09T22:12:14.730Z,73.40
2019-05-09T22:14:44.341Z,73.40
2019-05-09T22:17:15.560Z,73.90
2019-05-09T22:19:45.146Z,74.10
2019-05-09T22:22:14.808Z,74.30
2019-05-09T22:24:44.267Z,74.80
2019-05-09T22:27:13.929Z,75.10
2019-05-09T22:29:44.472Z,76.20
2019-05-09T22:32:14.127Z,75.60
2019-05-09T22:34:43.755Z,75.80
2019-05-09T22:37:13.428Z,76.40
2019-05-09T22:39:43.067Z,76.80
2019-05-09T22:42:14.331Z,77.40
2019-05-09T22:44:43.925Z,77.70
2019-05-09T22:47:13.595Z,78.20
2019-05-09T22:49:43.138Z,78.40
2019-05-09T22:52:12.881Z,79.00
2019-05-09T22:54:42.461Z,79.60
2019-05-09T22:57:12.097Z,79.90
2019-05-09T22:59:41.732Z,80.20
2019-05-09T23:02:11.333Z,80.50
2019-05-09T23:04:40.836Z,80.80
2019-05-09T23:07:10.439Z,81.10
2019-05-09T23:09:40.041Z,81.10
2019-05-09T23:12:09.688Z,81.10
2019-05-09T23:14:39.392Z,81.30
2019-05-09T23:17:09.944Z,81.90
2019-05-09T23:19:39.582Z,81.40
2019-05-09T23:22:09.613Z,81.40
2019-05-09T23:24:40.119Z,81.80
2019-05-09T23:27:11.363Z,82.20
2019-05-09T23:29:40.906Z,82.40
2019-05-09T23:32:13.402Z,82.90
2019-05-09T23:34:43.017Z,83.00
2019-05-09T23:37:12.684Z,83.20
2019-05-09T23:39:43.970Z,83.20
2019-05-09T23:42:13.605Z,83.10
2019-05-09T23:44:43.205Z,83.60
2019-05-09T23:47:12.818Z,84.50
2019-05-09T23:49:42.409Z,85.20
2019-05-09T23:52:12.118Z,85.10
2019-05-09T23:54:46.410Z,85.30
2019-05-09T23:57:16.247Z,85.80
2019-05-09T23:59:49.294Z,86.20
